createdAt,value
2023-05-10T17:40:58.151Z,20.38
2023-05-10T17:43:26.181Z,19.84
2023-05-10T17:45:53.446Z,19.87
2023-05-10T17:48:20.684Z,19.04
2023-05-10T17:50:51.049Z,18.81
2023-05-10T17:53:19.539Z,18.13
2023-05-10T17:55:47.172Z,16.82
2023-05-10T17:58:14.385Z,17.14
2023-05-10T18:00:41.519Z,17.76
2023-05-10T18:03:08.565Z,16.65
2023-05-10T18:05:39.580Z,16.51
2023-05-10T18:08:07.702Z,16.40
2023-05-10T18:10:34.935Z,16.32
2023-05-10T18:13:05.400Z,16.43
2023-05-10T18:15:35.039Z,15.74
2023-05-10T18:18:04.255Z,15.67
2023-05-10T18:20:32.273Z,16.40
2023-05-10T18:22:59.448Z,16.17
2023-05-10T18:25:26.554Z,16.08
2023-05-10T18:27:53.784Z,15.93
2023-05-10T18:30:20.899Z,16.07
2023-05-10T18:32:48.534Z,15.78
2023-05-10T18:35:15.924Z,16.24
2023-05-10T18:37:43.251Z,15.91
2023-05-10T18:40:12.626Z,15.83
2023-05-10T18:42:39.852Z,15.64
2023-05-10T18:45:07.757Z,16.39
2023-05-10T18:47:35.026Z,16.87
2023-05-10T18:50:05.688Z,16.47
2023-05-10T18:52:33.084Z,16.97
2023-05-10T18:55:00.250Z,16.87
2023-05-10T18:57:27.251Z,16.69
2023-05-10T18:59:54.358Z,15.80
2023-05-10T19:02:21.487Z,16.13
2023-05-10T19:04:48.643Z,17.06
2023-05-10T19:07:15.768Z,17.19
2023-05-10T19:09:42.830Z,16.57
2023-05-10T19:12:09.946Z,16.04
2023-05-10T19:14:37.074Z,15.67
2023-05-10T19:17:04.177Z,16.10
2023-05-10T19:19:31.976Z,16.29
2023-05-10T19:21:59.036Z,16.80
2023-05-10T19:24:26.642Z,16.84
2023-05-10T19:26:55.485Z,15.78
2023-05-10T19:29:23.305Z,16.63
2023-05-10T19:31:52.529Z,16.63
2023-05-10T19:34:20.362Z,16.56
2023-05-10T19:36:47.387Z,16.59
2023-05-10T19:39:14.514Z,16.96
2023-05-10T19:41:41.641Z,17.17
2023-05-10T19:44:08.722Z,17.23
2023-05-10T19:46:35.841Z,16.80
2023-05-10T19:49:02.920Z,17.11
2023-05-10T19:51:30.030Z,16.84
2023-05-10T19:53:57.369Z,16.45
2023-05-10T19:56:24.572Z,16.16
2023-05-10T19:58:51.603Z,16.56
2023-05-10T20:01:18.777Z,16.67
2023-05-10T20:03:45.956Z,17.23
2023-05-10T20:06:13.388Z,17.11
2023-05-10T20:08:40.552Z,15.12
2023-05-10T20:11:07.629Z,16.31
2023-05-10T20:13:34.830Z,16.53
2023-05-10T20:16:02.622Z,16.77
2023-05-10T20:18:29.768Z,17.07
2023-05-10T20:20:59.324Z,17.15
2023-05-10T20:23:27.912Z,16.79
2023-05-10T20:25:55.435Z,16.65
2023-05-10T20:28:25.502Z,16.46
2023-05-10T20:30:54.977Z,16.93
2023-05-10T20:33:22.858Z,17.24
2023-05-10T20:35:51.431Z,16.61
2023-05-10T20:38:18.687Z,16.40
2023-05-10T20:40:46.651Z,16.29
2023-05-10T20:43:13.770Z,16.81
2023-05-10T20:45:40.745Z,15.97
2023-05-10T20:48:08.722Z,16.24
2023-05-10T20:50:35.832Z,16.96
2023-05-10T20:53:02.985Z,16.80
2023-05-10T20:55:30.012Z,17.28
2023-05-10T20:57:57.203Z,17.04
2023-05-10T21:00:24.259Z,17.44
2023-05-10T21:02:51.434Z,17.22
2023-05-10T21:05:18.935Z,17.64
2023-05-10T21:07:46.156Z,17.81
2023-05-10T21:10:13.236Z,17.78
2023-05-10T21:12:40.517Z,17.73
2023-05-10T21:15:09.072Z,17.66
2023-05-10T21:17:36.270Z,17.15
2023-05-10T21:20:03.799Z,14.13
2023-05-10T21:22:30.861Z,14.70
2023-05-10T21:24:58.034Z,15.84
2023-05-10T21:27:25.164Z,16.13
2023-05-10T21:29:52.251Z,15.65
2023-05-10T21:32:19.336Z,15.76
2023-05-10T21:34:46.374Z,15.69
2023-05-10T21:37:13.455Z,15.46
2023-05-10T21:39:40.581Z,16.32
2023-05-10T21:42:07.704Z,15.47
2023-05-10T21:44:35.037Z,16.06
2023-05-10T21:47:02.191Z,16.30
2023-05-10T21:49:29.086Z,16.48
2023-05-10T21:51:56.143Z,15.61
2023-05-10T21:54:23.774Z,15.36
2023-05-10T21:56:50.833Z,15.63
2023-05-10T21:59:18.209Z,15.22
2023-05-10T22:01:45.622Z,15.11
2023-05-10T22:04:12.801Z,15.53
2023-05-10T22:06:39.979Z,15.55
2023-05-10T22:09:07.180Z,14.87
2023-05-10T22:11:34.127Z,16.06
2023-05-10T22:14:01.177Z,14.82
2023-05-10T22:16:28.963Z,14.86
2023-05-10T22:18:56.154Z,14.90
2023-05-10T22:21:23.403Z,15.08
2023-05-10T22:23:50.537Z,15.10
2023-05-10T22:26:17.632Z,14.70
2023-05-10T22:28:44.718Z,15.38
2023-05-10T22:31:12.786Z,15.80
2023-05-10T22:33:39.956Z,15.16
2023-05-10T22:36:07.340Z,14.20
2023-05-10T22:38:34.495Z,14.95
2023-05-10T22:41:01.524Z,15.36
2023-05-10T22:43:28.557Z,15.77
2023-05-10T22:45:55.745Z,16.02
2023-05-10T22:48:22.825Z,15.87
2023-05-10T22:50:49.976Z,16.32
2023-05-10T22:53:17.026Z,16.01
2023-05-10T22:55:44.147Z,16.15
2023-05-10T22:58:11.459Z,16.26
2023-05-10T23:00:38.766Z,16.02
2023-05-10T23:03:06.812Z,15.32
2023-05-10T23:05:33.943Z,14.90
2023-05-10T23:08:01.568Z,14.73
2023-05-10T23:10:28.700Z,15.33
2023-05-10T23:12:56.226Z,15.65
2023-05-10T23:15:23.354Z,15.60
2023-05-10T23:17:50.439Z,15.35
2023-05-10T23:20:17.822Z,15.76
2023-05-10T23:22:45.065Z,14.53
2023-05-10T23:25:12.204Z,13.51
2023-05-10T23:27:39.486Z,13.39
2023-05-10T23:30:07.606Z,13.85
2023-05-10T23:32:34.689Z,13.45
2023-05-10T23:35:02.017Z,13.63
2023-05-10T23:37:29.019Z,13.82
2023-05-10T23:39:56.256Z,13.76
2023-05-10T23:42:23.344Z,14.25
2023-05-10T23:44:52.397Z,14.00
2023-05-10T23:47:19.489Z,14.20
2023-05-10T23:49:46.566Z,14.20
2023-05-10T23:52:14.174Z,14.44
2023-05-10T23:54:42.601Z,14.37
2023-05-10T23:57:10.448Z,14.30
2023-05-10T23:59:37.505Z,13.89
